Time;durP1;ratioP1;P1;durP2;ratioP2;P2;SDS_P1;SDS_P2;PMS_P1;PMS_P2;Temp;Humidity;BMP_temperature;BMP_pressure;BME280_temperature;BME280_humidity;BME280_pressure;Samples;Min_cycle;Max_cycle;Signal;HPM_P1;HPM_P2
2022/03/07 00:01:06;;;;;;;14.65;9.82;;;2.50;99.90;;;;;;5039642;28;20061;-76
2022/03/07 00:03:32;;;;;;;18.60;10.73;;;2.60;99.90;;;;;;5036453;28;20118;-76
2022/03/07 00:05:57;;;;;;;17.08;10.32;;;2.50;99.90;;;;;;5040563;28;20029;-76
2022/03/07 00:08:23;;;;;;;14.20;9.65;;;2.60;99.90;;;;;;5042032;28;20072;-76
2022/03/07 00:10:49;;;;;;;13.52;10.18;;;2.50;99.90;;;;;;5043457;28;20020;-76
2022/03/07 00:13:15;;;;;;;16.63;10.25;;;2.50;99.90;;;;;;5045279;28;20056;-76
2022/03/07 00:15:40;;;;;;;14.02;10.77;;;2.50;99.90;;;;;;5041789;28;20378;-76
2022/03/07 00:18:06;;;;;;;16.52;10.82;;;2.40;99.90;;;;;;5044728;28;20086;-76
2022/03/07 00:20:32;;;;;;;18.48;11.07;;;2.40;99.90;;;;;;5036787;28;20119;-76
2022/03/07 00:22:58;;;;;;;16.33;10.98;;;2.40;99.90;;;;;;5039023;28;20029;-76
2022/03/07 00:25:24;;;;;;;16.70;11.00;;;2.40;99.90;;;;;;5038470;28;20026;-76
2022/03/07 00:27:50;;;;;;;15.23;10.45;;;2.40;99.90;;;;;;5046082;28;20028;-76
2022/03/07 00:30:17;;;;;;;17.92;11.45;;;2.30;99.90;;;;;;5036208;28;20504;-76
2022/03/07 00:32:43;;;;;;;16.02;11.43;;;2.30;99.90;;;;;;5040027;28;20108;-76
2022/03/07 00:35:10;;;;;;;17.75;11.07;;;2.30;99.90;;;;;;5045588;28;20137;-76
2022/03/07 00:37:36;;;;;;;18.13;11.30;;;2.20;99.90;;;;;;5048965;28;20037;-76
2022/03/07 00:40:04;;;;;;;20.90;11.30;;;2.30;99.90;;;;;;5033327;28;20055;-76
2022/03/07 00:42:30;;;;;;;16.85;11.05;;;2.20;99.90;;;;;;5045353;28;20021;-76
2022/03/07 00:44:56;;;;;;;19.25;11.38;;;2.20;99.90;;;;;;5041753;28;20099;-76
2022/03/07 00:47:21;;;;;;;18.52;11.52;;;2.30;99.90;;;;;;5040447;28;20076;-76
2022/03/07 00:49:47;;;;;;;18.27;11.27;;;2.30;99.90;;;;;;5042090;28;20087;-76
2022/03/07 00:52:13;;;;;;;17.00;10.73;;;2.30;99.90;;;;;;5034639;28;20052;-76
2022/03/07 00:54:39;;;;;;;20.10;12.02;;;2.20;99.90;;;;;;5039056;28;20028;-76
2022/03/07 00:57:05;;;;;;;17.70;11.85;;;2.20;99.90;;;;;;5035649;28;20045;-76
2022/03/07 00:59:30;;;;;;;17.55;12.30;;;2.20;99.90;;;;;;5032216;28;20094;-76
2022/03/07 01:01:56;;;;;;;19.05;12.82;;;2.20;99.90;;;;;;5037278;28;20039;-76
2022/03/07 01:04:22;;;;;;;16.75;10.93;;;2.20;99.90;;;;;;5037338;28;20039;-76
2022/03/07 01:06:47;;;;;;;17.80;11.02;;;2.20;99.90;;;;;;5023478;28;20113;-76
2022/03/07 01:09:13;;;;;;;19.80;12.30;;;2.10;99.90;;;;;;5038585;28;20048;-76
2022/03/07 01:11:39;;;;;;;17.73;11.18;;;2.20;99.90;;;;;;5028693;28;20064;-76
2022/03/07 01:14:04;;;;;;;16.10;10.90;;;2.20;99.90;;;;;;5035002;28;20056;-76
2022/03/07 01:16:30;;;;;;;14.32;11.45;;;2.10;99.90;;;;;;5030239;28;20037;-76
2022/03/07 01:18:56;;;;;;;17.65;11.27;;;2.10;99.90;;;;;;5038079;28;20094;-76
2022/03/07 01:21:21;;;;;;;21.75;13.02;;;2.10;99.90;;;;;;5032398;28;20420;-76
2022/03/07 01:23:47;;;;;;;16.17;11.40;;;2.10;99.90;;;;;;5031065;28;20018;-76
2022/03/07 01:26:12;;;;;;;17.73;11.02;;;2.10;99.90;;;;;;5035286;28;20029;-76
2022/03/07 01:28:38;;;;;;;19.75;12.02;;;2.10;99.90;;;;;;5040930;28;20125;-76
2022/03/07 01:31:04;;;;;;;18.35;11.73;;;2.10;99.90;;;;;;5031767;28;20056;-76
2022/03/07 01:33:29;;;;;;;18.50;12.73;;;2.10;99.90;;;;;;5034215;28;20079;-76
2022/03/07 01:35:55;;;;;;;18.48;12.20;;;2.00;99.90;;;;;;5039753;28;20032;-76
2022/03/07 01:38:20;;;;;;;18.55;12.93;;;2.10;99.90;;;;;;5041493;28;20389;-76
2022/03/07 01:40:46;;;;;;;18.23;11.75;;;2.00;99.90;;;;;;5047173;28;20389;-76
2022/03/07 01:43:12;;;;;;;21.85;13.63;;;2.00;99.90;;;;;;5038461;28;20033;-76
2022/03/07 01:45:42;;;;;;;20.80;12.98;;;2.00;99.90;;;;;;5036884;28;20056;-76
2022/03/07 01:48:08;;;;;;;20.42;13.50;;;1.90;99.90;;;;;;5037993;28;20563;-76
2022/03/07 01:50:34;;;;;;;21.70;14.02;;;1.90;99.90;;;;;;5037956;28;20466;-76
2022/03/07 01:52:59;;;;;;;20.00;12.40;;;1.90;99.90;;;;;;5039907;28;20029;-76
2022/03/07 01:55:25;;;;;;;22.13;13.55;;;1.90;99.90;;;;;;5037998;28;20075;-76
2022/03/07 01:57:51;;;;;;;19.55;12.30;;;1.90;99.90;;;;;;5051709;28;20489;-76
2022/03/07 02:00:20;;;;;;;19.60;13.45;;;1.90;99.90;;;;;;5037032;28;20056;-76
2022/03/07 02:02:46;;;;;;;19.85;13.40;;;1.80;99.90;;;;;;5037627;28;20024;-76
2022/03/07 02:05:12;;;;;;;22.67;13.80;;;1.80;99.90;;;;;;5035323;28;20361;-76
2022/03/07 02:07:39;;;;;;;20.25;13.02;;;1.80;99.90;;;;;;5042166;28;20508;-76
2022/03/07 02:10:08;;;;;;;18.52;12.55;;;1.80;99.90;;;;;;5042429;28;20381;-76
2022/03/07 02:12:34;;;;;;;21.60;12.35;;;1.80;99.90;;;;;;5045680;28;20024;-76
2022/03/07 02:14:59;;;;;;;19.60;12.73;;;1.80;99.90;;;;;;5038604;28;20025;-76
2022/03/07 02:17:25;;;;;;;19.77;12.27;;;1.70;99.90;;;;;;5041101;28;20055;-76
2022/03/07 02:19:51;;;;;;;21.23;13.23;;;1.70;99.90;;;;;;5045123;28;20096;-75
2022/03/07 02:22:16;;;;;;;19.38;12.82;;;1.70;99.90;;;;;;5043314;28;20029;-75
2022/03/07 02:24:43;;;;;;;20.75;13.18;;;1.70;99.90;;;;;;5049108;28;20025;-75
2022/03/07 02:27:11;;;;;;;20.98;12.60;;;1.70;99.90;;;;;;5043572;28;20017;-75
2022/03/07 02:29:38;;;;;;;22.50;13.75;;;1.70;99.90;;;;;;5041654;28;20083;-75
2022/03/07 02:32:05;;;;;;;22.17;14.15;;;1.70;99.90;;;;;;5041759;28;20138;-75
2022/03/07 02:34:31;;;;;;;21.10;13.57;;;1.60;99.90;;;;;;5039339;28;20013;-75
2022/03/07 02:36:56;;;;;;;22.55;14.57;;;1.60;99.90;;;;;;5027168;28;20501;-75
2022/03/07 02:39:22;;;;;;;21.70;13.60;;;1.60;99.90;;;;;;5038960;28;20382;-75
2022/03/07 02:41:48;;;;;;;23.00;13.90;;;1.60;99.90;;;;;;5047536;28;20029;-75
2022/03/07 02:44:14;;;;;;;20.75;13.27;;;1.60;99.90;;;;;;5038677;28;20224;-75
2022/03/07 02:46:40;;;;;;;19.20;13.40;;;1.50;99.90;;;;;;5043856;28;20035;-75
2022/03/07 02:49:06;;;;;;;21.17;13.88;;;1.50;99.90;;;;;;5041185;28;20030;-75
2022/03/07 02:51:32;;;;;;;22.60;14.85;;;1.40;99.90;;;;;;5029800;28;20029;-75
2022/03/07 02:53:58;;;;;;;20.90;14.38;;;1.50;99.90;;;;;;5040790;28;20096;-76
2022/03/07 02:56:24;;;;;;;20.42;13.60;;;1.40;99.90;;;;;;5042234;28;20112;-75
2022/03/07 02:58:50;;;;;;;22.15;13.90;;;1.40;99.90;;;;;;5044414;28;20104;-75
2022/03/07 03:01:15;;;;;;;24.77;14.77;;;1.30;99.90;;;;;;5045038;28;20051;-75
2022/03/07 03:03:41;;;;;;;23.80;15.40;;;1.30;99.90;;;;;;5038474;28;20048;-75
2022/03/07 03:06:07;;;;;;;25.17;14.95;;;1.20;99.90;;;;;;5049530;28;20028;-75
2022/03/07 03:08:33;;;;;;;25.38;14.68;;;1.20;99.90;;;;;;5038422;28;20108;-75
2022/03/07 03:10:59;;;;;;;23.02;14.18;;;1.20;99.90;;;;;;5036122;28;20108;-75
2022/03/07 03:13:25;;;;;;;23.67;14.00;;;1.20;99.90;;;;;;5042154;28;20361;-75
2022/03/07 03:15:52;;;;;;;25.17;15.75;;;1.20;99.90;;;;;;5028734;28;20030;-75
2022/03/07 03:18:19;;;;;;;21.83;15.48;;;1.20;99.90;;;;;;5038541;28;20551;-74
2022/03/07 03:20:46;;;;;;;25.63;16.02;;;1.10;99.90;;;;;;5034504;28;20017;-75
2022/03/07 03:23:12;;;;;;;21.88;14.90;;;1.10;99.90;;;;;;5032394;28;20017;-75
2022/03/07 03:25:38;;;;;;;23.80;14.90;;;1.10;99.90;;;;;;5031371;28;20030;-75
2022/03/07 03:28:05;;;;;;;23.52;16.08;;;1.10;99.90;;;;;;5030698;28;20026;-75
2022/03/07 03:30:31;;;;;;;25.05;15.73;;;1.10;99.90;;;;;;5039451;28;20018;-75
2022/03/07 03:32:58;;;;;;;23.92;16.17;;;1.10;99.90;;;;;;5033845;28;20151;-75
2022/03/07 03:35:24;;;;;;;24.05;16.02;;;1.10;99.90;;;;;;5037645;28;20014;-76
2022/03/07 03:37:50;;;;;;;24.38;16.27;;;1.10;99.90;;;;;;5035792;28;20091;-75
2022/03/07 03:40:15;;;;;;;26.58;16.80;;;1.10;99.90;;;;;;5036211;28;20331;-75
2022/03/07 03:42:41;;;;;;;25.00;15.65;;;1.10;99.90;;;;;;5038672;28;20022;-75
2022/03/07 03:45:08;;;;;;;27.02;16.08;;;1.10;99.90;;;;;;5038786;28;20474;-76
2022/03/07 03:47:35;;;;;;;27.77;17.13;;;1.10;99.90;;;;;;5033630;28;20061;-75
2022/03/07 03:50:02;;;;;;;24.02;15.60;;;1.10;99.90;;;;;;5036974;28;20034;-75
2022/03/07 03:52:28;;;;;;;27.25;16.92;;;1.00;99.90;;;;;;5031370;28;20026;-75
2022/03/07 03:54:55;;;;;;;24.83;16.17;;;1.00;99.90;;;;;;5045379;28;20037;-75
2022/03/07 03:57:21;;;;;;;30.83;16.27;;;1.00;99.90;;;;;;5033513;28;20045;-75
2022/03/07 03:59:48;;;;;;;26.58;16.48;;;1.10;99.90;;;;;;5033070;28;20040;-76
2022/03/07 04:02:13;;;;;;;25.25;16.50;;;1.00;99.90;;;;;;5035490;28;20026;-75
2022/03/07 04:04:39;;;;;;;28.33;16.83;;;1.00;99.90;;;;;;5031053;28;20150;-75
2022/03/07 04:07:05;;;;;;;26.08;15.27;;;1.00;99.90;;;;;;5036780;28;20345;-75
2022/03/07 04:09:31;;;;;;;28.08;15.48;;;1.00;99.90;;;;;;5037094;28;20394;-75
2022/03/07 04:11:57;;;;;;;27.00;16.55;;;1.00;99.90;;;;;;5038803;28;20393;-75
2022/03/07 04:14:22;;;;;;;25.17;15.88;;;1.00;99.90;;;;;;5034137;28;20034;-76
2022/03/07 04:16:48;;;;;;;24.23;15.90;;;1.00;99.90;;;;;;5034320;28;20039;-75
2022/03/07 04:19:15;;;;;;;26.33;15.45;;;1.00;99.90;;;;;;5026360;28;20370;-75
2022/03/07 04:21:42;;;;;;;29.48;15.45;;;1.00;99.90;;;;;;5038542;28;20021;-75
2022/03/07 04:24:10;;;;;;;23.77;15.80;;;1.00;99.90;;;;;;5025044;28;20120;-75
2022/03/07 04:26:36;;;;;;;29.83;16.42;;;0.90;99.90;;;;;;5038797;28;20022;-75
2022/03/07 04:29:08;;;;;;;25.30;15.40;;;0.90;99.90;;;;;;5026010;28;20033;-75
2022/03/07 04:31:42;;;;;;;25.85;14.90;;;0.90;99.90;;;;;;5045342;28;20032;-75
2022/03/07 04:34:09;;;;;;;29.30;17.30;;;0.90;99.90;;;;;;5048568;28;20021;-75
2022/03/07 04:36:37;;;;;;;25.35;16.20;;;0.90;99.90;;;;;;5031874;28;20047;-75
2022/03/07 04:39:05;;;;;;;25.63;14.98;;;0.90;99.90;;;;;;5028568;28;20067;-75
2022/03/07 04:41:31;;;;;;;28.45;16.58;;;0.90;99.90;;;;;;5037606;28;20029;-75
2022/03/07 04:43:57;;;;;;;23.90;15.05;;;0.80;99.90;;;;;;5029297;28;20048;-75
2022/03/07 04:46:22;;;;;;;26.48;15.60;;;0.90;99.90;;;;;;5024088;28;20439;-75
2022/03/07 04:48:48;;;;;;;27.08;16.92;;;0.80;99.90;;;;;;5031872;28;20044;-75
2022/03/07 04:51:14;;;;;;;30.83;17.17;;;0.80;99.90;;;;;;5029193;28;20009;-75
2022/03/07 04:53:40;;;;;;;25.50;17.75;;;0.80;99.90;;;;;;5039824;28;20028;-75
2022/03/07 04:56:06;;;;;;;28.50;18.17;;;0.80;99.90;;;;;;5040316;28;20029;-75
2022/03/07 04:58:32;;;;;;;25.92;17.20;;;0.80;99.90;;;;;;5036993;28;20033;-75
2022/03/07 05:00:57;;;;;;;29.65;18.58;;;0.70;99.90;;;;;;5022882;28;20033;-75
2022/03/07 05:03:23;;;;;;;26.63;17.10;;;0.70;99.90;;;;;;5036011;28;20037;-75
2022/03/07 05:05:50;;;;;;;27.67;17.50;;;0.70;99.90;;;;;;5037729;28;20028;-76
2022/03/07 05:08:16;;;;;;;31.92;18.92;;;0.70;99.90;;;;;;5030114;28;20033;-75
2022/03/07 05:10:41;;;;;;;31.25;18.38;;;0.60;99.90;;;;;;5033262;28;20039;-75
2022/03/07 05:13:07;;;;;;;27.48;17.15;;;0.70;99.90;;;;;;5034137;28;20034;-75
2022/03/07 05:15:32;;;;;;;28.67;16.35;;;0.60;99.90;;;;;;5031318;28;20029;-75
2022/03/07 05:17:58;;;;;;;28.75;17.20;;;0.60;99.90;;;;;;5032263;28;20033;-75
2022/03/07 05:20:25;;;;;;;25.40;16.60;;;0.60;99.90;;;;;;5036406;28;20393;-75
2022/03/07 05:22:51;;;;;;;28.60;17.40;;;0.60;99.90;;;;;;5028049;28;20048;-75
2022/03/07 05:25:18;;;;;;;27.02;17.90;;;0.60;99.90;;;;;;5037625;28;20458;-75
2022/03/07 05:27:44;;;;;;;31.60;18.38;;;0.60;99.90;;;;;;5023179;28;20025;-75
2022/03/07 05:30:15;;;;;;;30.80;17.85;;;0.60;99.90;;;;;;5038427;28;20033;-76
2022/03/07 05:32:42;;;;;;;29.35;18.30;;;0.60;99.90;;;;;;5027266;28;20026;-76
2022/03/07 05:35:08;;;;;;;30.27;17.95;;;0.60;99.90;;;;;;5031349;28;20485;-75
2022/03/07 05:37:34;;;;;;;29.77;16.88;;;0.60;99.90;;;;;;5046957;28;20029;-75
2022/03/07 05:39:59;;;;;;;28.40;18.15;;;0.60;99.90;;;;;;5040029;28;20013;-75
2022/03/07 05:42:25;;;;;;;28.70;18.00;;;0.60;99.90;;;;;;5039574;28;20147;-75
2022/03/07 05:44:52;;;;;;;29.23;17.25;;;0.50;99.90;;;;;;5038352;28;20026;-75
2022/03/07 05:47:18;;;;;;;29.48;18.80;;;0.50;99.90;;;;;;5039312;28;20029;-76
2022/03/07 05:49:44;;;;;;;28.25;17.92;;;0.50;99.90;;;;;;5029167;28;20026;-75
2022/03/07 05:52:10;;;;;;;31.70;18.50;;;0.60;99.90;;;;;;5037054;28;20036;-76
2022/03/07 05:54:35;;;;;;;28.83;18.73;;;0.50;99.90;;;;;;5036559;28;20024;-75
2022/03/07 05:57:01;;;;;;;34.28;18.48;;;0.50;99.90;;;;;;5038306;28;20067;-76
2022/03/07 05:59:27;;;;;;;27.25;16.55;;;0.50;99.90;;;;;;5039488;28;20041;-75
2022/03/07 06:01:52;;;;;;;30.88;18.75;;;0.50;99.90;;;;;;5039831;28;20037;-76
2022/03/07 06:04:18;;;;;;;28.08;17.23;;;0.50;99.90;;;;;;5039283;28;20029;-75
2022/03/07 06:06:44;;;;;;;30.10;17.15;;;0.50;99.90;;;;;;5040019;28;20386;-75
2022/03/07 06:09:09;;;;;;;28.40;17.75;;;0.50;99.90;;;;;;5037516;28;20052;-76
2022/03/07 06:11:35;;;;;;;27.67;17.20;;;0.50;99.90;;;;;;5033155;28;20030;-75
2022/03/07 06:14:00;;;;;;;35.17;17.63;;;0.50;99.90;;;;;;5042229;28;20426;-76
2022/03/07 06:16:26;;;;;;;26.95;17.42;;;0.40;99.90;;;;;;5029465;28;20041;-75
2022/03/07 06:18:52;;;;;;;33.75;18.23;;;0.40;99.90;;;;;;5044964;28;20028;-75
2022/03/07 06:21:17;;;;;;;30.80;19.38;;;0.40;99.90;;;;;;5036563;28;20540;-76
2022/03/07 06:23:43;;;;;;;29.17;17.77;;;0.40;99.90;;;;;;5028560;28;20037;-75
2022/03/07 06:26:09;;;;;;;29.02;18.23;;;0.40;99.90;;;;;;5033816;28;20461;-71
2022/03/07 06:28:35;;;;;;;31.83;17.85;;;0.50;99.90;;;;;;5051687;28;20033;-75
2022/03/07 06:31:01;;;;;;;26.83;17.65;;;0.50;99.90;;;;;;5043534;28;20056;-76
2022/03/07 06:33:27;;;;;;;31.15;17.88;;;0.50;99.90;;;;;;5029216;28;20070;-76
2022/03/07 06:35:52;;;;;;;34.53;18.52;;;0.40;99.90;;;;;;5041415;28;20021;-75
2022/03/07 06:38:19;;;;;;;35.47;19.50;;;0.40;99.90;;;;;;5036686;28;20417;-77
2022/03/07 06:40:45;;;;;;;31.08;18.70;;;0.50;99.90;;;;;;5035108;28;20101;-75
2022/03/07 06:43:11;;;;;;;29.27;18.17;;;0.50;99.90;;;;;;5029815;28;20481;-75
2022/03/07 06:45:37;;;;;;;30.55;18.50;;;0.50;99.90;;;;;;5028191;28;20025;-75
2022/03/07 06:48:02;;;;;;;31.23;18.65;;;0.50;99.90;;;;;;5042087;28;20025;-76
2022/03/07 06:50:29;;;;;;;33.85;19.95;;;0.50;99.90;;;;;;5042012;28;20032;-76
2022/03/07 06:52:54;;;;;;;34.13;19.77;;;0.50;99.90;;;;;;5039822;28;20017;-76
2022/03/07 06:55:20;;;;;;;33.03;21.08;;;0.50;99.90;;;;;;5053420;28;20419;-76
2022/03/07 06:57:46;;;;;;;35.85;19.77;;;0.50;99.90;;;;;;5030209;28;20498;-75
2022/03/07 07:00:13;;;;;;;33.58;20.45;;;0.50;99.90;;;;;;5035301;28;20092;-75
2022/03/07 07:02:39;;;;;;;33.42;19.60;;;0.50;99.90;;;;;;5025532;28;20108;-76
2022/03/07 07:05:06;;;;;;;37.20;20.55;;;0.50;99.90;;;;;;5037257;28;20017;-76
2022/03/07 07:07:32;;;;;;;28.88;19.33;;;0.50;99.90;;;;;;5044179;28;20083;-75
2022/03/07 07:09:58;;;;;;;36.70;19.63;;;0.60;99.90;;;;;;5035448;28;20461;-76
2022/03/07 07:12:24;;;;;;;30.05;18.40;;;0.50;99.90;;;;;;5036428;28;20026;-75
2022/03/07 07:14:50;;;;;;;31.85;18.95;;;0.60;99.90;;;;;;5039204;28;20353;-75
2022/03/07 07:17:16;;;;;;;33.10;18.27;;;0.50;99.90;;;;;;5034476;28;20671;-76
2022/03/07 07:19:42;;;;;;;32.63;19.08;;;0.50;99.90;;;;;;5031568;28;20052;-75
2022/03/07 07:22:08;;;;;;;32.17;19.08;;;0.50;99.90;;;;;;5044173;28;20049;-75
2022/03/07 07:24:34;;;;;;;33.40;19.67;;;0.50;99.90;;;;;;5045460;28;20552;-75
2022/03/07 07:27:00;;;;;;;34.15;19.23;;;0.60;99.90;;;;;;5033469;28;20092;-76
2022/03/07 07:29:25;;;;;;;34.72;21.10;;;0.60;99.90;;;;;;5034743;28;20033;-76
2022/03/07 07:31:54;;;;;;;33.22;20.20;;;0.70;99.90;;;;;;5034197;28;20022;-75
2022/03/07 07:34:21;;;;;;;33.53;18.38;;;0.70;99.90;;;;;;5034672;28;20037;-75
2022/03/07 07:36:48;;;;;;;32.78;18.90;;;0.70;99.90;;;;;;5030354;28;20088;-76
2022/03/07 07:39:14;;;;;;;30.40;18.30;;;0.80;99.90;;;;;;5036373;28;20025;-76
2022/03/07 07:41:40;;;;;;;30.05;17.45;;;0.90;99.90;;;;;;5033535;28;20473;-75
2022/03/07 07:44:05;;;;;;;32.35;18.80;;;0.90;99.90;;;;;;5030328;28;20021;-75
2022/03/07 07:46:31;;;;;;;27.73;16.67;;;1.00;99.90;;;;;;5039752;28;20033;-75
2022/03/07 07:48:57;;;;;;;30.88;18.98;;;1.00;99.90;;;;;;5027642;28;20041;-75
2022/03/07 07:51:22;;;;;;;28.17;17.67;;;1.10;99.90;;;;;;5035672;28;20064;-75
2022/03/07 07:53:48;;;;;;;28.80;16.83;;;1.10;99.90;;;;;;5033086;28;20026;-75
2022/03/07 07:56:14;;;;;;;25.33;16.27;;;1.20;99.90;;;;;;5041649;28;20025;-75
2022/03/07 07:58:40;;;;;;;27.52;17.98;;;1.30;99.90;;;;;;5033657;28;20029;-76
2022/03/07 08:01:06;;;;;;;33.65;18.63;;;1.40;99.90;;;;;;5028394;28;20477;-76
2022/03/07 08:03:31;;;;;;;25.73;17.33;;;1.50;99.90;;;;;;5021366;28;20026;-75
2022/03/07 08:05:58;;;;;;;21.35;14.70;;;1.60;99.90;;;;;;5036906;28;20022;-75
2022/03/07 08:08:24;;;;;;;24.15;15.15;;;1.70;99.90;;;;;;5025818;28;20029;-75
2022/03/07 08:10:49;;;;;;;23.27;13.10;;;1.90;99.90;;;;;;5035918;28;20025;-71
2022/03/07 08:13:16;;;;;;;20.05;13.75;;;1.80;99.90;;;;;;5026731;28;20043;-75
2022/03/07 08:15:41;;;;;;;21.02;14.57;;;2.00;99.90;;;;;;5043178;28;20378;-75
2022/03/07 08:18:08;;;;;;;22.50;13.90;;;2.20;99.90;;;;;;5039558;28;20041;-76
2022/03/07 08:20:34;;;;;;;17.52;12.60;;;2.40;99.90;;;;;;5036625;28;20021;-75
2022/03/07 08:23:00;;;;;;;20.02;11.93;;;2.50;99.90;;;;;;5030806;28;20036;-76
2022/03/07 08:25:26;;;;;;;19.98;12.10;;;2.70;99.90;;;;;;5032349;28;20430;-78
2022/03/07 08:27:53;;;;;;;17.90;12.43;;;2.90;99.90;;;;;;5029636;28;20025;-75
2022/03/07 08:30:21;;;;;;;18.45;11.20;;;3.10;99.90;;;;;;5029464;28;20029;-77
2022/03/07 08:32:47;;;;;;;17.92;10.95;;;3.10;99.90;;;;;;5029971;28;20022;-77
2022/03/07 08:35:13;;;;;;;16.95;10.75;;;3.30;99.90;;;;;;5026805;28;20084;-75
2022/03/07 08:37:40;;;;;;;14.13;10.70;;;3.40;99.90;;;;;;5043978;28;20557;-76
2022/03/07 08:40:08;;;;;;;18.60;10.25;;;3.50;99.90;;;;;;5026309;28;20025;-76
2022/03/07 08:42:34;;;;;;;17.33;10.35;;;3.60;99.90;;;;;;5030282;28;20024;-77
2022/03/07 08:45:00;;;;;;;13.88;9.70;;;3.60;99.90;;;;;;5030897;28;20382;-75
2022/03/07 08:47:26;;;;;;;11.80;9.20;;;3.80;99.90;;;;;;5025173;28;20029;-76
2022/03/07 08:49:53;;;;;;;12.75;9.45;;;3.70;99.90;;;;;;5039507;28;20025;-77
2022/03/07 08:52:19;;;;;;;9.93;7.90;;;3.90;99.90;;;;;;5027241;28;20022;-78
2022/03/07 08:54:46;;;;;;;10.70;7.13;;;3.90;99.90;;;;;;5032473;28;20028;-77
2022/03/07 08:57:12;;;;;;;14.60;7.13;;;4.00;99.90;;;;;;5044902;28;20419;-76
2022/03/07 08:59:38;;;;;;;7.82;6.15;;;4.00;99.90;;;;;;5035543;28;20549;-79
2022/03/07 09:02:05;;;;;;;7.65;6.40;;;4.30;99.90;;;;;;5027332;28;20060;-78
2022/03/07 09:04:30;;;;;;;8.73;6.65;;;4.30;99.90;;;;;;5032450;28;20021;-79
2022/03/07 09:06:56;;;;;;;7.97;5.95;;;4.50;99.90;;;;;;5035097;28;20022;-78
2022/03/07 09:09:22;;;;;;;13.45;7.03;;;4.50;99.90;;;;;;5041042;28;20100;-76
2022/03/07 09:11:48;;;;;;;9.02;5.95;;;4.40;99.90;;;;;;5032355;28;20425;-76
2022/03/07 09:14:14;;;;;;;8.15;6.50;;;4.30;99.90;;;;;;5042083;28;20115;-77
2022/03/07 09:16:40;;;;;;;8.25;6.10;;;4.30;99.40;;;;;;5039347;28;20043;-77
2022/03/07 09:19:06;;;;;;;7.30;6.13;;;4.30;99.90;;;;;;5026288;28;20033;-79
2022/03/07 09:21:32;;;;;;;7.57;6.45;;;4.40;99.90;;;;;;5035161;28;21545;-77
2022/03/07 09:23:58;;;;;;;11.05;6.28;;;4.50;99.90;;;;;;5026837;28;20441;-77
2022/03/07 09:26:24;;;;;;;6.43;5.68;;;4.70;99.90;;;;;;5042913;28;20101;-77
2022/03/07 09:28:49;;;;;;;7.95;5.53;;;4.80;99.90;;;;;;5024556;28;20495;-77
2022/03/07 09:31:15;;;;;;;6.85;5.45;;;5.00;99.30;;;;;;5041816;28;20025;-77
2022/03/07 09:33:41;;;;;;;5.43;4.93;;;5.10;98.70;;;;;;5038931;28;20025;-77
2022/03/07 09:36:06;;;;;;;6.18;5.30;;;5.20;98.90;;;;;;5041487;28;20315;-77
2022/03/07 09:38:35;;;;;;;5.70;5.10;;;5.20;99.70;;;;;;5029364;28;20483;-78
2022/03/07 09:41:01;;;;;;;9.85;5.75;;;5.10;98.70;;;;;;5040147;28;20025;-81
2022/03/07 09:43:26;;;;;;;9.52;5.93;;;5.20;98.40;;;;;;5042263;28;20129;-78
2022/03/07 09:45:52;;;;;;;7.90;5.70;;;5.40;97.90;;;;;;5032870;28;20463;-77
2022/03/07 09:48:21;;;;;;;6.10;4.70;;;5.50;99.30;;;;;;5024049;28;20179;-77
2022/03/07 09:50:48;;;;;;;7.32;5.55;;;5.50;98.80;;;;;;5031340;28;20055;-78
2022/03/07 09:53:16;;;;;;;6.82;5.43;;;5.50;97.90;;;;;;5025605;28;20386;-77
2022/03/07 09:55:42;;;;;;;5.15;4.53;;;5.60;97.90;;;;;;5034110;28;20457;-78
2022/03/07 09:58:08;;;;;;;7.53;4.45;;;5.60;97.60;;;;;;5031267;28;20136;-80
2022/03/07 10:00:34;;;;;;;8.73;4.50;;;5.50;97.30;;;;;;5029006;28;20076;-77
2022/03/07 10:03:09;;;;;;;9.98;5.07;;;5.70;97.10;;;;;;5034340;28;20417;-77
2022/03/07 10:05:38;;;;;;;6.45;5.22;;;5.70;97.40;;;;;;5037031;28;20108;-77
2022/03/07 10:08:05;;;;;;;5.63;4.65;;;5.80;96.70;;;;;;5023475;28;20021;-77
2022/03/07 10:10:42;;;;;;;6.63;4.57;;;5.80;96.70;;;;;;5037944;28;20091;-77
2022/03/07 10:13:10;;;;;;;6.07;4.97;;;5.90;96.80;;;;;;5020839;28;20037;-78
2022/03/07 10:15:38;;;;;;;6.07;5.15;;;6.20;97.20;;;;;;5036704;28;20025;-77
2022/03/07 10:18:05;;;;;;;6.50;4.50;;;6.40;96.40;;;;;;5022881;28;20065;-77
2022/03/07 10:20:31;;;;;;;5.63;5.13;;;6.20;95.00;;;;;;5039040;28;20033;-76
2022/03/07 10:22:58;;;;;;;5.78;5.18;;;6.30;96.70;;;;;;5045602;28;20029;-77
2022/03/07 10:25:29;;;;;;;8.10;4.88;;;6.50;96.00;;;;;;5036181;28;20014;-77
2022/03/07 10:27:57;;;;;;;6.53;4.57;;;6.50;95.80;;;;;;5027309;28;20492;-78
2022/03/07 10:30:26;;;;;;;9.02;5.75;;;6.50;94.50;;;;;;5042066;28;20432;-76
2022/03/07 10:33:06;;;;;;;5.47;4.70;;;6.60;96.40;;;;;;5035821;28;20026;-77
2022/03/07 10:35:35;;;;;;;5.53;5.03;;;6.70;96.20;;;;;;5037422;28;20055;-77
2022/03/07 10:38:04;;;;;;;7.00;5.03;;;6.80;95.40;;;;;;5037016;28;20092;-78
2022/03/07 10:40:31;;;;;;;5.68;3.90;;;6.70;94.60;;;;;;5045341;28;20025;-78
2022/03/07 10:43:00;;;;;;;5.65;4.55;;;6.80;94.80;;;;;;5041961;28;20083;-78
2022/03/07 10:45:27;;;;;;;7.65;4.68;;;6.80;94.60;;;;;;5030856;28;20453;-78
2022/03/07 10:48:00;;;;;;;6.00;4.60;;;6.60;94.00;;;;;;5047804;28;20029;-78
2022/03/07 10:50:27;;;;;;;5.57;5.03;;;6.60;94.20;;;;;;5031966;28;20029;-79
2022/03/07 10:53:02;;;;;;;5.82;5.05;;;6.80;94.20;;;;;;5040292;28;20107;-78
2022/03/07 10:55:30;;;;;;;10.98;5.35;;;6.80;95.60;;;;;;5029504;28;20473;-78
2022/03/07 10:58:07;;;;;;;5.65;5.03;;;6.90;95.10;;;;;;5039826;28;20040;-77
2022/03/07 11:00:33;;;;;;;6.75;5.30;;;7.20;93.80;;;;;;5039586;28;20042;-78
2022/03/07 11:03:00;;;;;;;6.10;4.75;;;7.30;94.80;;;;;;5027930;28;20363;-79
2022/03/07 11:05:26;;;;;;;5.00;4.50;;;7.00;93.50;;;;;;5034770;28;20109;-79
2022/03/07 11:07:52;;;;;;;7.05;5.47;;;6.90;93.50;;;;;;5040433;28;20081;-79
2022/03/07 11:10:19;;;;;;;7.25;4.75;;;7.10;93.90;;;;;;5041351;28;20107;-79
2022/03/07 11:12:45;;;;;;;5.28;4.78;;;7.30;94.80;;;;;;5042680;28;20022;-79
2022/03/07 11:15:18;;;;;;;8.90;4.93;;;7.40;94.50;;;;;;5029333;28;20474;-78
2022/03/07 11:17:47;;;;;;;7.47;4.68;;;7.30;92.50;;;;;;5035949;28;20037;-79
2022/03/07 11:20:15;;;;;;;7.65;4.85;;;7.40;94.00;;;;;;5035327;28;21478;-76
2022/03/07 11:22:41;;;;;;;6.15;4.43;;;7.50;92.70;;;;;;5029025;28;20025;-79
2022/03/07 11:25:08;;;;;;;7.38;5.10;;;7.30;92.40;;;;;;5039010;28;20093;-79
2022/03/07 11:27:36;;;;;;;8.35;4.85;;;7.40;93.00;;;;;;5031086;28;20025;-78
2022/03/07 11:30:21;;;;;;;7.65;5.30;;;7.40;93.40;;;;;;5032461;28;20029;-79
2022/03/07 11:32:51;;;;;;;7.20;4.60;;;7.40;93.20;;;;;;5028958;28;20037;-80
2022/03/07 11:35:17;;;;;;;5.30;4.15;;;7.70;94.70;;;;;;5028394;28;20029;-80
2022/03/07 11:37:43;;;;;;;5.40;4.90;;;7.70;92.40;;;;;;5028784;28;20030;-79
2022/03/07 11:40:23;;;;;;;5.20;4.70;;;7.70;92.00;;;;;;5038227;28;20470;-80
2022/03/07 11:42:50;;;;;;;4.10;3.70;;;7.80;92.50;;;;;;5034163;28;20025;-80
2022/03/07 11:45:21;;;;;;;5.00;4.40;;;7.90;93.80;;;;;;5027160;28;20394;-79
2022/03/07 11:47:48;;;;;;;7.13;4.57;;;8.10;92.60;;;;;;5037276;28;20531;-78
2022/03/07 11:50:15;;;;;;;4.93;4.32;;;8.00;92.70;;;;;;5025282;28;20026;-79
2022/03/07 11:52:42;;;;;;;5.20;4.63;;;8.00;91.90;;;;;;5037989;28;20021;-79
2022/03/07 11:55:16;;;;;;;6.45;4.72;;;8.00;91.70;;;;;;5022878;28;20112;-79
2022/03/07 11:57:58;;;;;;;7.88;4.85;;;8.00;92.40;;;;;;5038664;28;20040;-79
2022/03/07 12:00:27;;;;;;;5.72;5.05;;;8.00;92.70;;;;;;5022573;28;20057;-79
2022/03/07 12:02:57;;;;;;;7.22;5.05;;;8.00;91.70;;;;;;5040593;28;20504;-79
2022/03/07 12:05:33;;;;;;;7.00;4.93;;;7.90;92.00;;;;;;5037895;28;20033;-80
2022/03/07 12:08:14;;;;;;;7.50;4.90;;;7.80;91.80;;;;;;5037995;28;20032;-81
2022/03/07 12:10:57;;;;;;;5.28;4.78;;;8.00;92.80;;;;;;5037361;28;20025;-80
2022/03/07 12:13:23;;;;;;;7.20;4.88;;;8.00;91.90;;;;;;5042898;28;20028;-79
2022/03/07 12:15:56;;;;;;;6.28;5.28;;;8.10;91.70;;;;;;5026856;28;20033;-79
2022/03/07 12:18:22;;;;;;;5.40;4.50;;;8.20;91.60;;;;;;5028580;28;20041;-79
2022/03/07 12:20:56;;;;;;;5.88;5.28;;;8.20;91.30;;;;;;5027232;28;20060;-79
2022/03/07 12:23:27;;;;;;;6.47;4.78;;;8.00;91.40;;;;;;5037021;28;20099;-79
2022/03/07 12:26:05;;;;;;;5.13;4.70;;;8.20;91.50;;;;;;5036864;28;20104;-78
2022/03/07 12:28:37;;;;;;;5.28;4.43;;;8.20;91.10;;;;;;5024897;28;20037;-76
2022/03/07 12:31:05;;;;;;;7.88;4.93;;;8.30;93.40;;;;;;5030873;28;20446;-79
2022/03/07 12:33:31;;;;;;;5.50;4.68;;;8.20;92.50;;;;;;5040396;28;20028;-78
2022/03/07 12:36:04;;;;;;;6.45;5.32;;;8.20;91.40;;;;;;5034963;28;20074;-79
2022/03/07 12:38:30;;;;;;;5.60;4.93;;;8.30;91.30;;;;;;5024212;28;20041;-79
2022/03/07 12:40:59;;;;;;;7.45;5.32;;;8.20;91.40;;;;;;5033924;28;20036;-78